Time;durP1;ratioP1;P1;durP2;ratioP2;P2;SDS_P1;SDS_P2;PMS_P1;PMS_P2;Temp;Humidity;BMP_temperature;BMP_pressure;BME280_temperature;BME280_humidity;BME280_pressure;Samples;Min_cycle;Max_cycle;Signal;HPM_P1;HPM_P2
2022/01/26 00:06:40;;;;;;;33.70;22.30;;;;;;;;;;6058986;29;20233;-65
2022/01/26 00:10:00;;;;;;;32.47;22.10;;;;;;;;;;6057164;29;20230;-65
2022/01/26 00:13:22;;;;;;;30.70;22.57;;;;;;;;;;6039656;29;20241;-65
2022/01/26 00:16:44;;;;;;;27.90;19.30;;;;;;;;;;6058834;29;20636;-65
2022/01/26 00:20:14;;;;;;;33.17;23.17;;;;;;;;;;6066758;29;20246;-65
2022/01/26 00:23:52;;;;;;;32.90;21.53;;;;;;;;;;6045753;29;20229;-65
2022/01/26 00:27:31;;;;;;;33.13;21.97;;;;;;;;;;6073358;29;20567;-65
2022/01/26 00:41:48;;;;;;;31.47;19.67;;;;;;;;;;6068267;29;20237;-65
2022/01/26 00:45:09;;;;;;;27.00;18.40;;;;;;;;;;6056334;29;20635;-66
2022/01/26 00:48:32;;;;;;;28.77;19.33;;;;;;;;;;6066251;29;20245;-65
2022/01/26 00:51:54;;;;;;;25.80;17.00;;;;;;;;;;6071629;29;20233;-64
2022/01/26 00:55:16;;;;;;;31.03;18.77;;;;;;;;;;6046905;29;20268;-64
2022/01/26 00:58:36;;;;;;;29.90;20.00;;;;;;;;;;6052629;29;20253;-66
2022/01/26 01:01:59;;;;;;;31.73;19.27;;;;;;;;;;6069777;29;20506;-64
2022/01/26 01:05:24;;;;;;;27.73;17.40;;;;;;;;;;6065272;29;20316;-66
2022/01/26 01:08:46;;;;;;;28.00;19.13;;;;;;;;;;6044640;29;20237;-66
2022/01/26 01:12:07;;;;;;;33.83;19.87;;;;;;;;;;6069706;29;20237;-65
2022/01/26 01:15:29;;;;;;;28.47;18.80;;;;;;;;;;6058975;29;20237;-65
2022/01/26 01:18:56;;;;;;;30.67;20.00;;;;;;;;;;6061823;29;20226;-64
2022/01/26 01:22:38;;;;;;;27.87;19.03;;;;;;;;;;6068998;29;20260;-64
2022/01/26 01:29:39;;;;;;;33.93;24.10;;;;;;;;;;6040837;29;20237;-65
2022/01/26 01:33:09;;;;;;;26.73;16.83;;;;;;;;;;6054889;29;20249;-66
2022/01/26 01:36:30;;;;;;;30.30;20.40;;;;;;;;;;6056892;29;20237;-66
2022/01/26 01:39:51;;;;;;;31.93;20.50;;;;;;;;;;6046913;29;20237;-65
2022/01/26 01:43:12;;;;;;;30.27;19.60;;;;;;;;;;6065054;29;20282;-64
2022/01/26 01:46:33;;;;;;;31.87;21.07;;;;;;;;;;6061238;29;20518;-64
2022/01/26 01:49:54;;;;;;;30.03;18.53;;;;;;;;;;6069483;29;20252;-65
2022/01/26 01:53:16;;;;;;;30.50;21.40;;;;;;;;;;6062024;29;20505;-66
2022/01/26 01:56:39;;;;;;;28.43;18.13;;;;;;;;;;6063577;29;20515;-66
2022/01/26 02:00:00;;;;;;;31.90;20.03;;;;;;;;;;6066821;29;20251;-65
2022/01/26 02:03:21;;;;;;;30.83;18.37;;;;;;;;;;6066749;29;20233;-64
2022/01/26 02:06:43;;;;;;;29.67;19.40;;;;;;;;;;6071604;29;20260;-66
2022/01/26 02:10:04;;;;;;;30.83;19.80;;;;;;;;;;6069184;29;20236;-65
2022/01/26 02:13:30;;;;;;;28.87;19.30;;;;;;;;;;6065607;29;20527;-66
2022/01/26 02:16:58;;;;;;;33.63;20.67;;;;;;;;;;6060799;29;20240;-66
2022/01/26 02:20:46;;;;;;;30.03;19.53;;;;;;;;;;6054384;29;20320;-66
2022/01/26 02:49:50;;;;;;;32.40;20.07;;;;;;;;;;6059050;29;20236;-65
2022/01/26 02:53:38;;;;;;;30.43;19.33;;;;;;;;;;6068326;29;20229;-66
2022/01/26 02:57:13;;;;;;;31.67;21.13;;;;;;;;;;6061582;29;20249;-65
2022/01/26 03:00:48;;;;;;;29.87;19.47;;;;;;;;;;6064753;29;20450;-65
2022/01/26 03:04:16;;;;;;;31.00;20.80;;;;;;;;;;6060042;29;20244;-65
2022/01/26 03:07:42;;;;;;;33.97;20.93;;;;;;;;;;6064746;29;20741;-67
2022/01/26 03:11:07;;;;;;;34.77;21.00;;;;;;;;;;6063827;29;20241;-67
2022/01/26 03:14:38;;;;;;;39.43;23.37;;;;;;;;;;6069356;29;20236;-66
2022/01/26 03:21:51;;;;;;;36.30;22.10;;;;;;;;;;6065777;29;20233;-64
2022/01/26 03:29:10;;;;;;;35.47;24.30;;;;;;;;;;6055514;29;20604;-64
2022/01/26 03:36:14;;;;;;;41.97;26.13;;;;;;;;;;6067693;29;20232;-66
2022/01/26 03:39:41;;;;;;;36.83;22.70;;;;;;;;;;6061660;29;20248;-65
2022/01/26 03:43:02;;;;;;;43.13;26.97;;;;;;;;;;6067645;29;20608;-64
2022/01/26 03:46:22;;;;;;;41.40;25.13;;;;;;;;;;6058368;29;20851;-67
2022/01/26 03:49:44;;;;;;;38.60;25.00;;;;;;;;;;6066964;29;20237;-67
2022/01/26 03:53:05;;;;;;;43.30;28.57;;;;;;;;;;6065426;29;20241;-64
2022/01/26 03:56:25;;;;;;;36.07;23.10;;;;;;;;;;6062352;29;20242;-67
2022/01/26 03:59:46;;;;;;;35.67;25.27;;;;;;;;;;6060098;29;20586;-66
2022/01/26 04:03:07;;;;;;;40.07;24.70;;;;;;;;;;6059231;29;20237;-66
2022/01/26 04:06:29;;;;;;;34.97;21.93;;;;;;;;;;6061342;29;20833;-66
2022/01/26 04:09:50;;;;;;;38.57;25.43;;;;;;;;;;6065158;29;20237;-65
2022/01/26 04:13:11;;;;;;;40.60;25.27;;;;;;;;;;6066512;29;20240;-66
2022/01/26 04:16:31;;;;;;;40.93;23.23;;;;;;;;;;6054673;29;20252;-66
2022/01/26 04:19:56;;;;;;;33.57;22.03;;;;;;;;;;6055727;29;20655;-65
2022/01/26 04:23:24;;;;;;;34.77;24.00;;;;;;;;;;6066562;29;20316;-66
2022/01/26 04:26:49;;;;;;;35.80;23.50;;;;;;;;;;6069196;29;20237;-66
2022/01/26 04:30:10;;;;;;;32.90;22.67;;;;;;;;;;6066570;29;20237;-65
2022/01/26 04:33:33;;;;;;;37.77;23.87;;;;;;;;;;6059390;29;20245;-65
2022/01/26 04:36:58;;;;;;;33.87;20.90;;;;;;;;;;6054497;29;20234;-67
2022/01/26 04:40:20;;;;;;;32.87;20.83;;;;;;;;;;6063117;29;20225;-66
2022/01/26 04:43:43;;;;;;;32.73;22.83;;;;;;;;;;6057334;29;20478;-65
2022/01/26 04:47:04;;;;;;;33.00;22.03;;;;;;;;;;6059741;29;20564;-65
2022/01/26 04:50:25;;;;;;;30.83;19.63;;;;;;;;;;6066635;29;20261;-65
2022/01/26 04:53:45;;;;;;;26.70;19.60;;;;;;;;;;6062646;29;20241;-65
2022/01/26 04:57:07;;;;;;;25.60;19.47;;;;;;;;;;6070435;29;20269;-66
2022/01/26 05:00:28;;;;;;;26.77;18.67;;;;;;;;;;6059091;29;20308;-65
2022/01/26 05:03:48;;;;;;;26.53;18.83;;;;;;;;;;6056427;29;20530;-66
2022/01/26 05:07:09;;;;;;;27.60;17.67;;;;;;;;;;6064793;29;20266;-65
2022/01/26 05:10:30;;;;;;;29.23;19.43;;;;;;;;;;6063175;29;20237;-66
2022/01/26 05:13:53;;;;;;;26.43;16.23;;;;;;;;;;6046123;29;20262;-65
2022/01/26 05:17:15;;;;;;;29.23;19.50;;;;;;;;;;6070581;29;20607;-64
2022/01/26 05:20:35;;;;;;;25.70;17.03;;;;;;;;;;6069143;29;20249;-66
2022/01/26 05:23:56;;;;;;;24.90;16.00;;;;;;;;;;6067348;29;20316;-64
2022/01/26 05:27:17;;;;;;;24.40;16.90;;;;;;;;;;6068109;29;20233;-65
2022/01/26 05:30:39;;;;;;;24.70;17.27;;;;;;;;;;6055269;29;20237;-66
2022/01/26 05:33:59;;;;;;;27.27;17.97;;;;;;;;;;6070094;29;21072;-64
2022/01/26 05:37:20;;;;;;;27.63;16.40;;;;;;;;;;6069947;29;20233;-65
2022/01/26 05:40:40;;;;;;;25.70;18.97;;;;;;;;;;6071715;29;20232;-65
2022/01/26 05:44:01;;;;;;;26.50;18.43;;;;;;;;;;6066843;29;20241;-65
2022/01/26 05:47:23;;;;;;;27.57;16.87;;;;;;;;;;6058288;29;20612;-65
2022/01/26 05:50:51;;;;;;;26.20;17.97;;;;;;;;;;6065238;29;20233;-66
2022/01/26 05:54:11;;;;;;;33.50;16.63;;;;;;;;;;6050936;29;20237;-65
2022/01/26 05:57:32;;;;;;;24.23;17.10;;;;;;;;;;6072832;29;20237;-66
2022/01/26 06:00:53;;;;;;;23.47;16.13;;;;;;;;;;6064041;29;20241;-66
2022/01/26 06:04:15;;;;;;;22.93;15.27;;;;;;;;;;6058531;29;20457;-65
2022/01/26 06:07:36;;;;;;;25.70;17.17;;;;;;;;;;6065513;29;20254;-66
2022/01/26 06:10:57;;;;;;;27.23;16.63;;;;;;;;;;6057353;29;20233;-67
2022/01/26 06:14:18;;;;;;;25.03;16.03;;;;;;;;;;6061267;29;20892;-65
2022/01/26 06:17:38;;;;;;;27.37;17.60;;;;;;;;;;6056081;29;20237;-65
2022/01/26 06:21:00;;;;;;;26.80;18.07;;;;;;;;;;6068602;29;20765;-65
2022/01/26 06:24:21;;;;;;;28.47;19.50;;;;;;;;;;6060108;29;20464;-64
2022/01/26 06:27:43;;;;;;;23.23;15.93;;;;;;;;;;6066417;29;20237;-65
2022/01/26 06:31:09;;;;;;;30.80;17.83;;;;;;;;;;6065193;29;20233;-65
2022/01/26 06:34:31;;;;;;;29.97;19.13;;;;;;;;;;6057919;29;20241;-66
2022/01/26 06:37:53;;;;;;;30.20;17.80;;;;;;;;;;6056104;29;20807;-66
2022/01/26 06:41:14;;;;;;;26.83;16.73;;;;;;;;;;6055246;29;20237;-66
2022/01/26 06:44:45;;;;;;;25.73;17.77;;;;;;;;;;6048095;29;20232;-65
2022/01/26 06:48:37;;;;;;;25.80;19.20;;;;;;;;;;6062268;29;20244;-66
2022/01/26 06:51:55;;;;;;;29.53;18.03;;;;;;;;;;6064249;29;20241;-67
2022/01/26 06:55:17;;;;;;;26.33;20.33;;;;;;;;;;6063474;29;20248;-66
2022/01/26 06:58:38;;;;;;;24.73;18.63;;;;;;;;;;6058870;29;20534;-67
2022/01/26 07:01:58;;;;;;;26.33;18.13;;;;;;;;;;6050336;29;20237;-67
2022/01/26 07:05:19;;;;;;;24.73;16.23;;;;;;;;;;6048321;29;20237;-66
2022/01/26 07:08:40;;;;;;;27.60;17.53;;;;;;;;;;6061341;29;20240;-65
2022/01/26 07:12:02;;;;;;;25.73;17.90;;;;;;;;;;6054379;29;20229;-67
2022/01/26 07:22:39;;;;;;;26.37;17.27;;;;;;;;;;6056765;29;21717;-64
2022/01/26 07:25:59;;;;;;;25.53;16.73;;;;;;;;;;6059397;29;20241;-65
2022/01/26 07:29:23;;;;;;;25.00;18.13;;;;;;;;;;6060828;29;20233;-68
2022/01/26 07:32:44;;;;;;;27.77;19.30;;;;;;;;;;6053398;29;20523;-67
2022/01/26 07:36:05;;;;;;;28.10;17.67;;;;;;;;;;6058696;29;20512;-66
2022/01/26 07:39:41;;;;;;;28.33;19.90;;;;;;;;;;6063341;29;20237;-67
2022/01/26 07:43:02;;;;;;;28.47;18.70;;;;;;;;;;6058996;29;20249;-65
2022/01/26 07:46:24;;;;;;;26.60;18.87;;;;;;;;;;6049510;29;20241;-67
2022/01/26 07:49:45;;;;;;;26.63;19.13;;;;;;;;;;6057270;29;20521;-66
2022/01/26 07:53:05;;;;;;;26.30;18.63;;;;;;;;;;6065448;29;20229;-65
2022/01/26 07:56:26;;;;;;;28.83;19.70;;;;;;;;;;6056181;29;20683;-64
2022/01/26 07:59:47;;;;;;;26.23;18.17;;;;;;;;;;6070263;29;20256;-66
2022/01/26 08:03:09;;;;;;;29.83;19.33;;;;;;;;;;6060944;29;20631;-65
2022/01/26 08:06:30;;;;;;;26.93;19.00;;;;;;;;;;6056993;29;20240;-66
2022/01/26 08:09:51;;;;;;;24.00;16.07;;;;;;;;;;6065214;29;20237;-65
2022/01/26 08:13:11;;;;;;;33.03;20.77;;;;;;;;;;6065941;29;20659;-66
2022/01/26 08:16:32;;;;;;;29.47;18.23;;;;;;;;;;6059203;29;20642;-66
2022/01/26 08:19:55;;;;;;;28.20;18.87;;;;;;;;;;6068538;29;20233;-64
2022/01/26 08:23:17;;;;;;;28.80;20.20;;;;;;;;;;6070558;29;20225;-64
2022/01/26 08:26:41;;;;;;;30.63;20.63;;;;;;;;;;6068185;29;20245;-64
2022/01/26 08:30:07;;;;;;;31.53;19.50;;;;;;;;;;6069823;29;20237;-64
2022/01/26 08:33:27;;;;;;;30.53;20.83;;;;;;;;;;6064413;29;20233;-64
2022/01/26 08:36:49;;;;;;;31.00;21.50;;;;;;;;;;6053373;29;20320;-66
2022/01/26 08:40:10;;;;;;;33.80;20.80;;;;;;;;;;6065272;29;20237;-65
2022/01/26 08:43:31;;;;;;;29.80;20.93;;;;;;;;;;6062769;29;20647;-65
2022/01/26 08:46:52;;;;;;;32.17;20.37;;;;;;;;;;6062527;29;20812;-66
2022/01/26 08:50:12;;;;;;;30.27;20.10;;;;;;;;;;6060700;29;20316;-65
2022/01/26 08:53:34;;;;;;;31.37;22.07;;;;;;;;;;6073438;29;20244;-65
2022/01/26 08:56:55;;;;;;;36.10;18.87;;;;;;;;;;6066751;29;20232;-65
2022/01/26 09:00:16;;;;;;;30.33;20.30;;;;;;;;;;6063784;29;20647;-66
2022/01/26 09:03:39;;;;;;;32.60;21.13;;;;;;;;;;6059582;29;20236;-66
2022/01/26 09:07:02;;;;;;;33.40;20.83;;;;;;;;;;6042170;29;20236;-67
2022/01/26 09:10:26;;;;;;;32.83;22.77;;;;;;;;;;6060731;29;20241;-67
2022/01/26 09:13:51;;;;;;;32.90;21.87;;;;;;;;;;6061388;29;20237;-65
2022/01/26 09:17:11;;;;;;;33.50;21.60;;;;;;;;;;6062258;29;21775;-64
2022/01/26 09:20:34;;;;;;;29.63;20.50;;;;;;;;;;6064163;29;20234;-64
2022/01/26 09:23:55;;;;;;;31.33;22.10;;;;;;;;;;6060285;29;20230;-63
2022/01/26 09:27:17;;;;;;;35.07;23.67;;;;;;;;;;6069009;29;20237;-64
2022/01/26 09:30:38;;;;;;;30.90;21.60;;;;;;;;;;6056470;29;22873;-63
2022/01/26 09:33:58;;;;;;;41.53;23.77;;;;;;;;;;6059865;29;20237;-65
2022/01/26 09:37:19;;;;;;;33.63;23.23;;;;;;;;;;6070175;29;20233;-64
2022/01/26 09:40:40;;;;;;;36.47;23.00;;;;;;;;;;6073586;29;20233;-65
2022/01/26 09:44:03;;;;;;;38.27;23.33;;;;;;;;;;6061237;29;20237;-63
2022/01/26 09:47:25;;;;;;;41.77;24.17;;;;;;;;;;6070084;29;20329;-65
2022/01/26 09:50:53;;;;;;;36.93;24.23;;;;;;;;;;6044886;29;20233;-63
2022/01/26 09:54:16;;;;;;;36.17;22.77;;;;;;;;;;6058952;29;20229;-64
2022/01/26 09:57:38;;;;;;;36.47;23.00;;;;;;;;;;6070653;29;20600;-64
2022/01/26 10:01:01;;;;;;;41.23;25.17;;;;;;;;;;6067930;29;20252;-66
2022/01/26 10:04:23;;;;;;;38.73;27.13;;;;;;;;;;6061169;29;20226;-65
2022/01/26 10:07:55;;;;;;;37.20;26.00;;;;;;;;;;6065622;29;20237;-62
2022/01/26 10:18:31;;;;;;;38.97;25.97;;;;;;;;;;6055591;29;20229;-65
2022/01/26 10:21:53;;;;;;;34.77;24.13;;;;;;;;;;6068344;29;20249;-64
2022/01/26 10:25:14;;;;;;;38.63;24.73;;;;;;;;;;6078425;29;20253;-66
2022/01/26 10:28:42;;;;;;;39.80;23.80;;;;;;;;;;6061920;29;20244;-65
2022/01/26 10:32:11;;;;;;;37.07;26.00;;;;;;;;;;6063499;29;20863;-63
2022/01/26 10:35:33;;;;;;;43.23;26.17;;;;;;;;;;6067336;29;20228;-64
2022/01/26 10:38:58;;;;;;;42.40;28.17;;;;;;;;;;6062601;29;20233;-64
2022/01/26 10:42:21;;;;;;;39.53;25.53;;;;;;;;;;6051950;29;20258;-64
2022/01/26 10:45:54;;;;;;;37.10;24.47;;;;;;;;;;6067822;29;20233;-67
2022/01/26 10:49:19;;;;;;;40.53;24.87;;;;;;;;;;6066659;29;20839;-64
2022/01/26 10:52:41;;;;;;;35.33;24.10;;;;;;;;;;6060215;29;20520;-67
2022/01/26 10:56:03;;;;;;;37.27;23.77;;;;;;;;;;6066855;29;20599;-65
2022/01/26 10:59:23;;;;;;;40.93;24.17;;;;;;;;;;6064835;29;20241;-65
2022/01/26 11:02:47;;;;;;;38.17;24.07;;;;;;;;;;6060539;29;20952;-66
2022/01/26 11:06:09;;;;;;;39.77;26.53;;;;;;;;;;6061752;29;20356;-63
2022/01/26 11:09:32;;;;;;;41.70;24.93;;;;;;;;;;6052782;29;20336;-67
2022/01/26 11:12:52;;;;;;;36.27;24.10;;;;;;;;;;6053723;29;20230;-64
2022/01/26 11:16:14;;;;;;;37.57;26.57;;;;;;;;;;6071812;29;21380;-66
2022/01/26 11:19:41;;;;;;;37.60;23.47;;;;;;;;;;6049318;29;20241;-66
2022/01/26 11:23:03;;;;;;;38.37;24.70;;;;;;;;;;6067881;29;20640;-63
2022/01/26 11:26:25;;;;;;;38.23;25.07;;;;;;;;;;6057944;29;20670;-66
2022/01/26 11:29:49;;;;;;;40.23;25.83;;;;;;;;;;6060646;29;20646;-64
2022/01/26 11:33:13;;;;;;;45.33;26.57;;;;;;;;;;6059380;29;20226;-67
2022/01/26 11:36:35;;;;;;;39.77;24.30;;;;;;;;;;6064204;29;20778;-65
2022/01/26 11:47:24;;;;;;;37.83;23.00;;;;;;;;;;6052178;29;20237;-65
2022/01/26 11:50:48;;;;;;;50.73;28.63;;;;;;;;;;6069451;29;20539;-66
2022/01/26 11:54:16;;;;;;;44.00;27.57;;;;;;;;;;6074587;29;20317;-65
2022/01/26 11:57:38;;;;;;;44.37;27.10;;;;;;;;;;6061989;29;20232;-65
2022/01/26 12:01:12;;;;;;;36.17;25.17;;;;;;;;;;6054400;29;20237;-66
2022/01/26 12:04:35;;;;;;;42.90;27.23;;;;;;;;;;6056964;29;20249;-65
2022/01/26 12:07:56;;;;;;;38.97;24.17;;;;;;;;;;6071164;29;20291;-64
2022/01/26 12:11:17;;;;;;;44.40;25.97;;;;;;;;;;6053551;29;20573;-64
2022/01/26 12:14:38;;;;;;;44.33;25.80;;;;;;;;;;6070652;29;20253;-65
2022/01/26 12:18:16;;;;;;;47.27;27.63;;;;;;;;;;6061395;29;20315;-66
2022/01/26 12:36:31;;;;;;;43.93;25.93;;;;;;;;;;6063830;29;20638;-67
2022/01/26 12:43:38;;;;;;;52.00;30.50;;;;;;;;;;6059183;29;20598;-64
2022/01/26 12:46:59;;;;;;;46.07;28.90;;;;;;;;;;6055429;29;20232;-66
2022/01/26 12:50:20;;;;;;;56.30;32.33;;;;;;;;;;6070911;29;20241;-64
2022/01/26 12:53:42;;;;;;;55.37;30.17;;;;;;;;;;6067465;29;20233;-65
2022/01/26 12:57:03;;;;;;;54.37;31.20;;;;;;;;;;6065448;29;20296;-65
2022/01/26 13:00:25;;;;;;;66.60;33.53;;;;;;;;;;6061900;29;20233;-68
2022/01/26 13:03:47;;;;;;;44.87;26.20;;;;;;;;;;6063252;29;20230;-67
2022/01/26 13:07:16;;;;;;;56.80;30.90;;;;;;;;;;6062939;29;20253;-64
2022/01/26 13:10:39;;;;;;;57.60;33.00;;;;;;;;;;6062454;29;20241;-69
2022/01/26 13:14:03;;;;;;;54.40;31.23;;;;;;;;;;6064029;29;20632;-67
2022/01/26 13:17:36;;;;;;;46.87;28.23;;;;;;;;;;6051647;29;20755;-69
2022/01/26 13:25:02;;;;;;;54.33;31.70;;;;;;;;;;6044639;29;20233;-69
2022/01/26 13:28:41;;;;;;;48.20;28.40;;;;;;;;;;6053488;29;20242;-68
2022/01/26 13:35:50;;;;;;;53.20;29.93;;;;;;;;;;6051831;29;20231;-67
2022/01/26 13:39:25;;;;;;;49.23;28.13;;;;;;;;;;6051539;29;20229;-67
2022/01/26 13:43:25;;;;;;;46.50;28.83;;;;;;;;;;6069278;29;20604;-67
2022/01/26 13:47:12;;;;;;;48.33;29.63;;;;;;;;;;6065951;29;20236;-69
2022/01/26 13:50:38;;;;;;;53.97;28.03;;;;;;;;;;6066700;29;20230;-67
2022/01/26 13:54:13;;;;;;;49.83;29.40;;;;;;;;;;6069871;29;20316;-65
2022/01/26 13:57:50;;;;;;;56.43;33.70;;;;;;;;;;6065757;29;20240;-67
2022/01/26 14:01:19;;;;;;;47.03;27.77;;;;;;;;;;6070172;29;20616;-66
2022/01/26 14:04:41;;;;;;;54.53;28.90;;;;;;;;;;6048889;29;20224;-67
2022/01/26 14:08:02;;;;;;;53.30;29.57;;;;;;;;;;6063996;29;20229;-66
2022/01/26 14:11:22;;;;;;;53.00;29.83;;;;;;;;;;6059176;29;20230;-66
2022/01/26 14:14:45;;;;;;;48.23;29.87;;;;;;;;;;6059154;29;20237;-66
2022/01/26 14:18:13;;;;;;;55.23;30.40;;;;;;;;;;6065897;29;20236;-66
2022/01/26 14:22:04;;;;;;;55.83;32.33;;;;;;;;;;6054923;29;20997;-64
2022/01/26 14:25:27;;;;;;;50.60;28.27;;;;;;;;;;6068312;29;20232;-65
2022/01/26 14:28:48;;;;;;;54.30;32.00;;;;;;;;;;6066474;29;20237;-66
2022/01/26 14:51:07;;;;;;;49.53;28.37;;;;;;;;;;6250286;28;20223;-64
2022/01/26 15:09:34;;;;;;;58.67;35.00;;;;;;;;;;6258223;28;20227;-64
2022/01/26 15:42:32;;;;;;;51.50;31.57;;;;;;;;;;6246299;28;20244;-66
2022/01/26 15:49:46;;;;;;;51.50;32.17;;;;;;;;;;6250248;28;20602;-66
2022/01/26 15:53:12;;;;;;;53.00;32.40;;;;;;;;;;6243099;28;20229;-65
2022/01/26 16:07:41;;;;;;;55.23;31.13;;;;;;;;;;6218031;28;20690;-66
2022/01/26 18:04:40;;;;;;;58.10;33.37;;;;;;;;;;6203881;28;20254;-66
2022/01/26 18:15:34;;;;;;;67.90;39.73;;;;;;;;;;6228190;28;20548;-66
2022/01/26 18:26:25;;;;;;;65.20;34.37;;;;;;;;;;6214288;28;20281;-66
2022/01/26 18:38:43;;;;;;;65.50;36.20;;;;;;;;;;6202137;28;20679;-66
2022/01/26 18:46:20;;;;;;;63.20;36.90;;;;;;;;;;6231875;28;20245;-68
2022/01/26 18:51:52;;;;;;;71.00;39.37;;;;;;;;;;6193801;28;20241;-65
2022/01/26 18:55:14;;;;;;;68.30;38.60;;;;;;;;;;6227636;28;20228;-65
2022/01/26 18:58:36;;;;;;;71.10;38.87;;;;;;;;;;6217856;28;20225;-66
2022/01/26 19:01:57;;;;;;;63.83;38.80;;;;;;;;;;6223924;28;20838;-65
2022/01/26 19:05:18;;;;;;;66.87;39.27;;;;;;;;;;6231060;28;20232;-65
2022/01/26 19:08:40;;;;;;;59.73;35.67;;;;;;;;;;6228086;28;20228;-64
2022/01/26 19:12:02;;;;;;;71.37;39.13;;;;;;;;;;6212025;28;20306;-64
2022/01/26 19:15:28;;;;;;;55.77;34.80;;;;;;;;;;6221379;28;20225;-64
2022/01/26 19:18:56;;;;;;;60.70;36.10;;;;;;;;;;6214438;28;20237;-66
2022/01/26 19:22:45;;;;;;;54.03;31.43;;;;;;;;;;6206910;28;20674;-65
2022/01/26 19:26:10;;;;;;;59.43;36.57;;;;;;;;;;6228852;28;20689;-64
2022/01/26 19:29:48;;;;;;;61.17;34.37;;;;;;;;;;6225426;28;20228;-65
2022/01/26 19:33:30;;;;;;;65.77;35.33;;;;;;;;;;6218036;28;20244;-65
2022/01/26 19:41:28;;;;;;;55.77;31.57;;;;;;;;;;6181513;28;20252;-67
2022/01/26 19:44:44;;;;;;;62.53;36.20;;;;;;;;;;6200543;28;22605;-65
2022/01/26 19:52:05;;;;;;;58.53;33.27;;;;;;;;;;6206086;28;20268;-65
2022/01/26 19:55:26;;;;;;;48.07;30.10;;;;;;;;;;6205805;28;20233;-66
2022/01/26 19:58:46;;;;;;;50.30;31.13;;;;;;;;;;6203884;28;20593;-66
2022/01/26 20:02:07;;;;;;;56.23;35.40;;;;;;;;;;6227994;28;20253;-64
2022/01/26 20:05:32;;;;;;;51.70;31.37;;;;;;;;;;6221035;28;20236;-63
2022/01/26 20:08:58;;;;;;;51.23;31.73;;;;;;;;;;6206071;28;20237;-64
2022/01/26 20:12:26;;;;;;;52.43;31.17;;;;;;;;;;6231699;28;20225;-65
2022/01/26 20:15:47;;;;;;;49.97;30.83;;;;;;;;;;6234479;28;21442;-65
2022/01/26 20:19:07;;;;;;;47.20;30.73;;;;;;;;;;6222178;28;20225;-65
2022/01/26 20:22:28;;;;;;;47.67;28.33;;;;;;;;;;6209816;28;20256;-65
2022/01/26 20:25:52;;;;;;;60.23;32.87;;;;;;;;;;6215127;28;20585;-65
2022/01/26 20:29:13;;;;;;;50.37;29.30;;;;;;;;;;6227037;28;20225;-63
2022/01/26 20:32:34;;;;;;;46.27;29.00;;;;;;;;;;6208396;28;20320;-64
2022/01/26 20:35:54;;;;;;;37.63;23.80;;;;;;;;;;6206265;28;20612;-63
2022/01/26 20:39:15;;;;;;;44.00;26.90;;;;;;;;;;6224704;28;20232;-64
2022/01/26 20:42:37;;;;;;;40.33;27.03;;;;;;;;;;6231349;28;21270;-62
2022/01/26 20:46:00;;;;;;;33.97;23.33;;;;;;;;;;6233609;28;20493;-65
2022/01/26 20:49:21;;;;;;;36.13;23.80;;;;;;;;;;6236391;28;20228;-64
2022/01/26 20:52:42;;;;;;;36.87;25.00;;;;;;;;;;6216864;28;20276;-64
2022/01/26 20:56:03;;;;;;;32.93;23.30;;;;;;;;;;6206384;28;20228;-65
2022/01/26 21:03:34;;;;;;;35.40;23.40;;;;;;;;;;6232180;28;20319;-64
2022/01/26 21:06:54;;;;;;;31.07;22.20;;;;;;;;;;6230257;28;20229;-63
2022/01/26 21:10:15;;;;;;;39.90;21.13;;;;;;;;;;6219542;28;20231;-64
2022/01/26 21:13:37;;;;;;;31.73;21.27;;;;;;;;;;6233855;28;20232;-63
2022/01/26 21:16:59;;;;;;;34.37;23.07;;;;;;;;;;6229302;28;20735;-64
2022/01/26 21:20:22;;;;;;;33.13;22.17;;;;;;;;;;6226462;28;20233;-65
2022/01/26 21:23:42;;;;;;;30.23;22.60;;;;;;;;;;6209359;28;20316;-65
2022/01/26 21:27:03;;;;;;;38.00;26.30;;;;;;;;;;6213104;28;20236;-66
2022/01/26 21:30:24;;;;;;;32.83;23.07;;;;;;;;;;6217569;28;20233;-65
2022/01/26 21:33:45;;;;;;;38.53;27.03;;;;;;;;;;6221533;28;20237;-64
2022/01/26 21:37:07;;;;;;;34.57;23.87;;;;;;;;;;6228658;28;20236;-65
2022/01/26 21:40:27;;;;;;;35.40;25.20;;;;;;;;;;6226580;28;20499;-65
2022/01/26 21:43:49;;;;;;;35.27;24.70;;;;;;;;;;6219466;28;20237;-64
2022/01/26 21:47:09;;;;;;;34.90;24.17;;;;;;;;;;6224816;28;20311;-64
2022/01/26 21:50:30;;;;;;;36.17;23.53;;;;;;;;;;6217201;28;20274;-65
2022/01/26 21:53:51;;;;;;;26.60;18.27;;;;;;;;;;6182799;28;20594;-65
2022/01/26 21:57:13;;;;;;;35.40;23.60;;;;;;;;;;6225293;28;20331;-65
2022/01/26 22:00:33;;;;;;;35.70;23.93;;;;;;;;;;6219260;28;20259;-64
2022/01/26 22:03:54;;;;;;;30.67;21.93;;;;;;;;;;6221930;28;20236;-66
2022/01/26 22:07:16;;;;;;;35.60;24.60;;;;;;;;;;6209326;28;20333;-66
2022/01/26 22:10:38;;;;;;;32.17;23.23;;;;;;;;;;6191633;28;20229;-65
2022/01/26 22:13:58;;;;;;;31.57;22.97;;;;;;;;;;6214844;28;20255;-65
2022/01/26 22:17:19;;;;;;;39.13;26.43;;;;;;;;;;6204486;28;20252;-67
2022/01/26 22:20:40;;;;;;;35.97;23.40;;;;;;;;;;6223673;28;20248;-65
2022/01/26 22:24:01;;;;;;;37.20;23.30;;;;;;;;;;6226819;28;20232;-65
2022/01/26 22:27:29;;;;;;;39.23;24.27;;;;;;;;;;6211778;28;20706;-65
2022/01/26 22:30:49;;;;;;;33.23;23.60;;;;;;;;;;6197600;28;20232;-65
2022/01/26 22:34:10;;;;;;;36.87;23.67;;;;;;;;;;6207564;28;20232;-65
2022/01/26 22:37:31;;;;;;;40.87;25.30;;;;;;;;;;6224550;28;20227;-64
2022/01/26 22:40:52;;;;;;;38.60;24.80;;;;;;;;;;6225275;28;20232;-64
2022/01/26 22:44:15;;;;;;;44.90;26.80;;;;;;;;;;6226762;28;20236;-64
2022/01/26 22:47:35;;;;;;;44.47;27.47;;;;;;;;;;6199182;28;20237;-66
2022/01/26 22:50:56;;;;;;;40.03;27.83;;;;;;;;;;6221531;28;20235;-64
2022/01/26 22:54:17;;;;;;;43.03;26.37;;;;;;;;;;6221006;28;20611;-65
2022/01/26 22:57:37;;;;;;;55.27;31.40;;;;;;;;;;6224973;28;20232;-66
2022/01/26 23:01:12;;;;;;;46.90;26.87;;;;;;;;;;6219956;28;20537;-64
2022/01/26 23:04:37;;;;;;;49.40;32.47;;;;;;;;;;6225949;28;20479;-65
2022/01/26 23:07:58;;;;;;;54.00;31.40;;;;;;;;;;6229526;28;20229;-65
2022/01/26 23:11:20;;;;;;;58.93;34.33;;;;;;;;;;6206689;28;20248;-64
2022/01/26 23:14:40;;;;;;;48.87;29.37;;;;;;;;;;6230595;28;20812;-65
2022/01/26 23:18:02;;;;;;;46.80;32.07;;;;;;;;;;6219348;28;20232;-65
2022/01/26 23:21:23;;;;;;;49.40;31.90;;;;;;;;;;6227035;28;20253;-65
2022/01/26 23:24:48;;;;;;;54.80;35.40;;;;;;;;;;6230420;28;20228;-65
2022/01/26 23:28:17;;;;;;;49.67;33.13;;;;;;;;;;6227256;28;20269;-66
2022/01/26 23:35:32;;;;;;;57.53;37.50;;;;;;;;;;6227055;28;20251;-67
2022/01/26 23:57:24;;;;;;;51.17;37.20;;;;;;;;;;6294276;27;20227;-65
